createdAt,value
2018-11-01T00:00:21.365Z,12.00
2018-11-01T00:02:57.053Z,12.00
2018-11-01T00:05:32.815Z,12.00
2018-11-01T00:08:08.426Z,12.00
2018-11-01T00:10:44.134Z,12.00
2018-11-01T00:13:19.836Z,11.90
2018-11-01T00:15:55.632Z,12.00
2018-11-01T00:18:31.153Z,12.00
2018-11-01T00:21:07.745Z,12.10
2018-11-01T00:23:43.521Z,12.10
2018-11-01T00:26:19.071Z,12.20
2018-11-01T00:28:55.005Z,12.30
2018-11-01T00:31:30.859Z,12.20
2018-11-01T00:34:06.287Z,12.10
2018-11-01T00:36:41.912Z,12.10
2018-11-01T00:39:17.337Z,12.10
2018-11-01T00:41:53.109Z,12.00
2018-11-01T00:44:28.698Z,12.10
2018-11-01T00:47:04.371Z,12.10
2018-11-01T00:49:39.890Z,12.00
2018-11-01T00:52:15.586Z,11.90
2018-11-01T00:54:51.229Z,11.90
2018-11-01T00:57:26.929Z,11.80
2018-11-01T01:00:02.395Z,11.60
2018-11-01T01:02:39.308Z,11.50
2018-11-01T01:05:16.812Z,11.70
2018-11-01T01:07:53.316Z,11.70
2018-11-01T01:10:28.937Z,11.50
2018-11-01T01:13:06.745Z,11.40
2018-11-01T01:15:42.305Z,11.40
2018-11-01T01:18:17.884Z,11.30
2018-11-01T01:20:53.552Z,11.30
2018-11-01T01:23:29.075Z,11.20
2018-11-01T01:26:04.964Z,11.20
2018-11-01T01:28:40.571Z,11.20
2018-11-01T01:31:16.261Z,11.20
2018-11-01T01:33:51.610Z,11.10
2018-11-01T01:36:27.473Z,11.10
2018-11-01T01:39:02.973Z,11.20
2018-11-01T01:41:38.889Z,11.30
2018-11-01T01:44:15.277Z,11.40
2018-11-01T01:46:51.202Z,11.40
2018-11-01T01:49:26.839Z,11.40
2018-11-01T01:52:02.021Z,11.30
2018-11-01T01:54:37.786Z,11.30
2018-11-01T01:57:13.248Z,11.30
2018-11-01T01:59:49.028Z,11.30
2018-11-01T02:02:24.558Z,11.20
2018-11-01T02:05:00.781Z,11.20
2018-11-01T02:07:36.725Z,11.20
2018-11-01T02:10:14.664Z,11.20
2018-11-01T02:12:50.346Z,11.30
2018-11-01T02:15:27.207Z,11.20
2018-11-01T02:18:03.885Z,11.20
2018-11-01T02:20:39.508Z,11.30
2018-11-01T02:23:15.023Z,11.30
2018-11-01T02:25:50.564Z,11.30
2018-11-01T02:28:26.472Z,11.40
2018-11-01T02:31:01.982Z,11.40
2018-11-01T02:33:37.769Z,11.40
2018-11-01T02:36:13.126Z,11.40
2018-11-01T02:38:48.979Z,12.10
2018-11-01T02:41:24.689Z,11.50
2018-11-01T02:44:00.187Z,11.50
2018-11-01T02:46:35.435Z,11.50
2018-11-01T02:49:11.548Z,11.40
2018-11-01T02:51:47.138Z,11.50
2018-11-01T02:54:23.053Z,11.50
2018-11-01T02:56:58.608Z,11.50
2018-11-01T02:59:33.811Z,11.40
2018-11-01T03:02:09.545Z,11.50
2018-11-01T03:04:45.219Z,11.50
2018-11-01T03:07:20.796Z,11.40
2018-11-01T03:09:56.650Z,11.50
2018-11-01T03:12:32.294Z,11.20
2018-11-01T03:15:09.201Z,11.40
2018-11-01T03:17:44.617Z,11.30
2018-11-01T03:20:20.284Z,11.30
2018-11-01T03:22:55.913Z,11.30
2018-11-01T03:25:31.617Z,11.30
2018-11-01T03:28:07.508Z,11.30
2018-11-01T03:30:43.129Z,11.30
2018-11-01T03:33:18.639Z,11.30
2018-11-01T03:35:54.262Z,11.20
2018-11-01T03:38:29.902Z,11.30
2018-11-01T03:41:05.973Z,11.20
2018-11-01T03:43:41.348Z,11.20
2018-11-01T03:46:17.065Z,11.20
2018-11-01T03:48:52.644Z,11.20
2018-11-01T03:51:28.617Z,11.20
2018-11-01T03:54:03.848Z,11.20
2018-11-01T03:56:39.273Z,11.10
2018-11-01T03:59:16.120Z,11.20
2018-11-01T04:01:51.957Z,11.20
2018-11-01T04:04:28.437Z,11.20
2018-11-01T04:07:04.284Z,12.50
2018-11-01T04:09:39.928Z,11.20
2018-11-01T04:12:15.609Z,11.30
2018-11-01T04:14:51.367Z,11.40
2018-11-01T04:17:27.026Z,11.40
2018-11-01T04:20:02.989Z,11.40
2018-11-01T04:22:39.360Z,11.30
2018-11-01T04:25:15.008Z,11.30
2018-11-01T04:27:50.502Z,11.40
2018-11-01T04:30:26.863Z,11.30
2018-11-01T04:33:02.793Z,11.30
2018-11-01T04:35:38.694Z,11.40
2018-11-01T04:38:14.319Z,11.50
2018-11-01T04:40:50.121Z,11.50
2018-11-01T04:43:26.013Z,11.40
2018-11-01T04:46:01.508Z,11.40
2018-11-01T04:48:37.305Z,11.40
2018-11-01T04:51:12.812Z,11.40
2018-11-01T04:53:48.461Z,11.40
2018-11-01T04:56:23.780Z,11.40
2018-11-01T04:59:00.170Z,11.50
2018-11-01T05:01:36.332Z,11.50
2018-11-01T05:04:11.832Z,11.40
2018-11-01T05:06:47.670Z,11.40
2018-11-01T05:09:23.353Z,11.30
2018-11-01T05:11:59.169Z,11.20
2018-11-01T05:14:34.558Z,12.20
2018-11-01T05:17:10.311Z,11.20
2018-11-01T05:19:46.125Z,11.10
2018-11-01T05:22:21.591Z,11.10
2018-11-01T05:24:57.416Z,11.10
2018-11-01T05:27:32.849Z,11.10
2018-11-01T05:30:10.219Z,11.20
2018-11-01T05:32:46.172Z,11.20
2018-11-01T05:35:21.842Z,11.10
2018-11-01T05:37:57.201Z,11.20
2018-11-01T05:40:32.963Z,11.10
2018-11-01T05:43:08.492Z,11.10
2018-11-01T05:45:44.249Z,11.10
2018-11-01T05:48:20.516Z,11.10
2018-11-01T05:50:57.180Z,11.10
2018-11-01T05:53:33.111Z,11.10
2018-11-01T05:56:09.459Z,11.10
2018-11-01T05:58:46.036Z,11.10
2018-11-01T06:01:27.233Z,11.20
2018-11-01T06:04:03.958Z,11.20
2018-11-01T06:06:39.984Z,11.10
2018-11-01T06:09:20.669Z,11.10
2018-11-01T06:11:56.172Z,11.10
2018-11-01T06:14:31.450Z,11.20
2018-11-01T06:17:06.981Z,11.10
2018-11-01T06:19:42.561Z,11.20
2018-11-01T06:22:18.496Z,11.20
2018-11-01T06:24:53.964Z,11.20
2018-11-01T06:27:29.808Z,11.20
2018-11-01T06:30:07.870Z,11.20
2018-11-01T06:32:44.057Z,11.30
2018-11-01T06:35:27.151Z,11.40
2018-11-01T06:38:02.498Z,11.30
2018-11-01T06:40:37.997Z,11.30
2018-11-01T06:43:14.927Z,11.20
2018-11-01T06:45:50.872Z,11.20
2018-11-01T06:48:26.290Z,11.20
2018-11-01T06:51:02.101Z,11.20
2018-11-01T06:53:37.857Z,11.30
2018-11-01T06:56:13.503Z,11.30
2018-11-01T06:58:49.815Z,11.30
2018-11-01T07:01:25.923Z,11.30
2018-11-01T07:04:01.677Z,11.40
2018-11-01T07:06:37.808Z,11.40
2018-11-01T07:09:14.147Z,11.40
2018-11-01T07:11:50.556Z,11.40
2018-11-01T07:14:26.694Z,11.40
2018-11-01T07:17:02.199Z,11.50
2018-11-01T07:19:39.120Z,11.40
2018-11-01T07:22:14.596Z,11.50
2018-11-01T07:24:50.181Z,11.60
2018-11-01T07:27:26.378Z,11.70
2018-11-01T07:30:01.665Z,11.70
2018-11-01T07:32:37.503Z,11.60
2018-11-01T07:35:13.592Z,11.60
2018-11-01T07:37:50.085Z,11.70
2018-11-01T07:40:26.411Z,11.70
2018-11-01T07:43:01.802Z,11.90
2018-11-01T07:45:37.909Z,11.90
2018-11-01T07:48:13.391Z,12.00
2018-11-01T07:50:49.321Z,12.10
2018-11-01T07:53:25.068Z,12.10
2018-11-01T07:56:00.558Z,12.30
2018-11-01T07:58:36.261Z,12.20
2018-11-01T08:01:12.023Z,12.20
2018-11-01T08:03:47.426Z,12.40
2018-11-01T08:06:23.461Z,12.50
2018-11-01T08:08:58.991Z,12.60
2018-11-01T08:11:34.736Z,12.70
2018-11-01T08:14:10.877Z,12.70
2018-11-01T08:16:46.190Z,12.70
2018-11-01T08:19:21.985Z,12.80
2018-11-01T08:21:57.265Z,12.90
2018-11-01T08:24:33.482Z,13.00
2018-11-01T08:27:08.688Z,13.00
2018-11-01T08:29:44.285Z,12.90
2018-11-01T08:32:19.865Z,12.90
2018-11-01T08:34:55.561Z,12.90
2018-11-01T08:37:31.146Z,13.00
2018-11-01T08:40:07.974Z,13.00
2018-11-01T08:42:43.713Z,13.10
2018-11-01T08:45:19.136Z,13.40
2018-11-01T08:47:54.523Z,13.50
2018-11-01T08:50:30.317Z,13.60
2018-11-01T08:53:05.927Z,13.70
2018-11-01T08:55:41.702Z,13.80
2018-11-01T08:58:17.220Z,13.70
2018-11-01T09:00:52.885Z,13.80
2018-11-01T09:03:28.510Z,13.80
2018-11-01T09:06:03.951Z,13.90
2018-11-01T09:08:39.937Z,13.90
2018-11-01T09:11:15.255Z,13.90
2018-11-01T09:13:51.062Z,13.90
2018-11-01T09:16:26.685Z,13.90
2018-11-01T09:19:02.150Z,14.00
2018-11-01T09:21:37.500Z,14.10
2018-11-01T09:24:13.842Z,14.10
2018-11-01T09:26:50.078Z,14.20
2018-11-01T09:29:25.486Z,14.20
2018-11-01T09:32:01.074Z,14.30
2018-11-01T09:34:36.934Z,14.50
2018-11-01T09:37:12.222Z,14.50
2018-11-01T09:39:48.131Z,14.50
2018-11-01T09:42:23.639Z,14.50
2018-11-01T09:44:59.208Z,14.40
2018-11-01T09:47:34.894Z,14.40
2018-11-01T09:50:11.102Z,14.40
2018-11-01T09:52:46.980Z,14.60
2018-11-01T09:55:22.930Z,14.60
2018-11-01T09:57:58.685Z,14.30
2018-11-01T10:00:34.349Z,14.30
2018-11-01T10:03:09.771Z,14.40
2018-11-01T10:05:45.910Z,14.50
2018-11-01T10:08:21.221Z,14.60
2018-11-01T10:10:56.938Z,14.80
2018-11-01T10:13:32.248Z,14.80
2018-11-01T10:16:08.443Z,14.80
2018-11-01T10:18:43.542Z,14.90
2018-11-01T10:21:19.465Z,14.90
2018-11-01T10:23:55.048Z,15.10
2018-11-01T10:26:30.737Z,15.20
2018-11-01T10:29:06.305Z,15.30
2018-11-01T10:31:41.949Z,15.40
2018-11-01T10:34:17.776Z,15.50
2018-11-01T10:36:53.241Z,15.60
2018-11-01T10:39:28.906Z,15.60
2018-11-01T10:42:04.816Z,15.50
2018-11-01T10:44:41.226Z,15.60
2018-11-01T10:47:16.937Z,15.80
2018-11-01T10:49:52.521Z,15.80
2018-11-01T10:52:27.932Z,15.90
2018-11-01T10:55:03.635Z,15.90
2018-11-01T10:57:39.369Z,16.00
2018-11-01T11:00:20.584Z,15.80
2018-11-01T11:02:56.838Z,15.80
2018-11-01T11:05:32.377Z,15.70
2018-11-01T11:08:08.165Z,15.80
2018-11-01T11:10:43.718Z,15.90
2018-11-01T11:13:19.740Z,15.90
2018-11-01T11:15:55.172Z,15.80
2018-11-01T11:18:30.604Z,15.80
2018-11-01T11:21:06.467Z,15.80
2018-11-01T11:23:41.968Z,15.80
2018-11-01T11:26:18.303Z,15.90
2018-11-01T11:28:53.923Z,16.00
2018-11-01T11:31:29.713Z,16.00
2018-11-01T11:34:05.245Z,15.90
2018-11-01T11:36:40.845Z,16.00
2018-11-01T11:39:16.645Z,16.10
2018-11-01T11:41:52.132Z,16.10
2018-11-01T11:44:27.774Z,16.00
2018-11-01T11:47:03.516Z,16.00
2018-11-01T11:49:39.421Z,16.10
2018-11-01T11:52:15.245Z,16.20
2018-11-01T11:54:50.517Z,16.10
2018-11-01T11:57:26.366Z,16.00
2018-11-01T12:00:01.818Z,16.00
2018-11-01T12:02:37.450Z,15.90
2018-11-01T12:05:13.496Z,15.90
2018-11-01T12:07:49.016Z,15.80
2018-11-01T12:10:24.608Z,15.90
2018-11-01T12:13:00.437Z,16.10
2018-11-01T12:15:35.909Z,16.20
2018-11-01T12:18:11.817Z,16.40
2018-11-01T12:20:47.611Z,16.40
2018-11-01T12:23:23.449Z,16.30
2018-11-01T12:25:59.725Z,16.40
2018-11-01T12:28:35.301Z,16.50
2018-11-01T12:31:10.962Z,16.80
2018-11-01T12:33:46.717Z,16.80
2018-11-01T12:36:22.429Z,16.60
2018-11-01T12:38:58.169Z,16.80
2018-11-01T12:41:33.755Z,17.00
2018-11-01T12:44:09.550Z,16.80
2018-11-01T12:46:45.971Z,16.80
2018-11-01T12:49:21.889Z,16.80
2018-11-01T12:51:57.721Z,18.50
2018-11-01T12:54:33.037Z,17.10
2018-11-01T12:57:08.688Z,17.10
2018-11-01T12:59:44.272Z,17.10
2018-11-01T13:02:20.241Z,16.90
2018-11-01T13:04:56.395Z,17.00
2018-11-01T13:07:32.534Z,17.10
2018-11-01T13:10:08.269Z,17.10
2018-11-01T13:12:43.782Z,16.90
2018-11-01T13:15:19.533Z,17.00
2018-11-01T13:17:55.197Z,17.10
2018-11-01T13:20:30.999Z,17.10
2018-11-01T13:23:06.657Z,17.50
2018-11-01T13:25:42.416Z,19.30
2018-11-01T13:28:17.989Z,21.70
2018-11-01T13:30:53.504Z,23.10
2018-11-01T13:33:28.981Z,23.70
2018-11-01T13:36:04.966Z,22.20
2018-11-01T13:38:40.317Z,21.60
2018-11-01T13:41:16.096Z,21.40
2018-11-01T13:43:51.547Z,21.40
2018-11-01T13:46:27.199Z,21.40
2018-11-01T13:49:02.777Z,21.50
2018-11-01T13:51:38.815Z,21.70
2018-11-01T13:54:15.073Z,21.30
2018-11-01T13:56:51.210Z,20.50
2018-11-01T13:59:26.865Z,20.20
2018-11-01T14:02:02.747Z,20.20
2018-11-01T14:04:38.526Z,20.20
2018-11-01T14:07:14.132Z,19.30
2018-11-01T14:09:49.337Z,18.80
2018-11-01T14:12:25.155Z,18.80
2018-11-01T14:15:01.220Z,19.00
2018-11-01T14:17:36.957Z,18.60
2018-11-01T14:20:13.322Z,18.70
2018-11-01T14:22:49.323Z,18.70
2018-11-01T14:25:25.172Z,18.60
2018-11-01T14:28:01.394Z,18.50
2018-11-01T14:30:38.291Z,18.30
2018-11-01T14:33:14.975Z,18.20
2018-11-01T14:35:50.661Z,18.10
2018-11-01T14:38:26.172Z,17.80
2018-11-01T14:41:02.934Z,17.70
2018-11-01T14:43:38.859Z,17.60
2018-11-01T14:46:14.440Z,17.40
2018-11-01T14:48:50.163Z,17.30
2018-11-01T14:51:26.673Z,17.30
2018-11-01T14:54:02.837Z,17.30
2018-11-01T14:56:39.289Z,17.30
2018-11-01T14:59:14.836Z,17.30
2018-11-01T15:01:49.456Z,17.50
2018-11-01T15:04:25.189Z,17.60
2018-11-01T15:07:01.086Z,17.50
2018-11-01T15:09:36.764Z,17.60
2018-11-01T15:12:12.414Z,17.60
2018-11-01T15:14:47.918Z,17.40
2018-11-01T15:17:23.696Z,17.30
2018-11-01T15:19:58.987Z,17.50
2018-11-01T15:22:34.614Z,17.50
2018-11-01T15:25:11.264Z,19.20
2018-11-01T15:27:46.975Z,17.50
2018-11-01T15:30:22.791Z,17.50
2018-11-01T15:32:58.538Z,17.50
2018-11-01T15:35:34.673Z,17.30
2018-11-01T15:38:10.793Z,17.30
2018-11-01T15:40:50.216Z,17.10
2018-11-01T15:43:26.519Z,17.00
2018-11-01T15:46:02.139Z,17.00
2018-11-01T15:48:37.660Z,16.90
2018-11-01T15:51:13.286Z,16.90
2018-11-01T15:53:48.691Z,16.90
2018-11-01T15:56:24.668Z,16.80
2018-11-01T15:59:00.010Z,16.60
2018-11-01T16:01:35.957Z,16.50
2018-11-01T16:04:12.586Z,16.50
2018-11-01T16:06:48.370Z,16.50
2018-11-01T16:09:23.911Z,16.40
2018-11-01T16:11:59.314Z,16.30
2018-11-01T16:14:34.918Z,16.30
2018-11-01T16:17:10.528Z,16.30
2018-11-01T16:19:46.327Z,16.30
2018-11-01T16:22:21.894Z,16.20
2018-11-01T16:24:57.617Z,16.20
2018-11-01T16:27:33.392Z,16.10
2018-11-01T16:30:09.215Z,16.10
2018-11-01T16:32:44.714Z,16.10
2018-11-01T16:35:20.573Z,16.10
2018-11-01T16:37:55.970Z,16.10
2018-11-01T16:40:31.854Z,16.00
2018-11-01T16:43:07.208Z,15.90
2018-11-01T16:45:42.722Z,15.90
2018-11-01T16:48:18.637Z,15.80
2018-11-01T16:50:54.201Z,15.70
2018-11-01T16:53:30.121Z,15.70
2018-11-01T16:56:06.087Z,15.70
2018-11-01T16:58:42.426Z,15.80
2018-11-01T17:01:17.878Z,15.90
2018-11-01T17:03:53.510Z,15.90
2018-11-01T17:06:29.502Z,15.90
2018-11-01T17:09:07.578Z,15.90
2018-11-01T17:11:43.173Z,16.00
2018-11-01T17:14:19.144Z,16.00
2018-11-01T17:16:54.697Z,16.00
2018-11-01T17:19:30.313Z,15.90
2018-11-01T17:22:06.030Z,13.70
2018-11-01T17:24:41.903Z,15.90
2018-11-01T17:27:17.611Z,15.80
2018-11-01T17:29:53.024Z,15.80
2018-11-01T17:32:28.582Z,15.70
2018-11-01T17:35:04.245Z,15.70
2018-11-01T17:37:40.020Z,15.70
2018-11-01T17:40:15.700Z,15.70
2018-11-01T17:42:51.104Z,15.70
2018-11-01T17:45:26.963Z,15.70
2018-11-01T17:48:02.074Z,15.60
2018-11-01T17:50:38.271Z,15.60
2018-11-01T17:53:13.901Z,15.60
2018-11-01T17:55:49.785Z,15.50
2018-11-01T17:58:25.636Z,15.50
2018-11-01T18:01:01.928Z,15.50
2018-11-01T18:03:37.686Z,15.40
2018-11-01T18:06:14.048Z,15.40
2018-11-01T18:08:50.118Z,15.40
2018-11-01T18:11:25.927Z,15.40
2018-11-01T18:14:02.446Z,15.40
2018-11-01T18:16:38.981Z,15.40
2018-11-01T18:19:15.225Z,15.40
2018-11-01T18:21:50.531Z,15.30
2018-11-01T18:24:26.242Z,15.30
2018-11-01T18:27:01.723Z,15.30
2018-11-01T18:29:37.485Z,16.50
2018-11-01T18:32:13.462Z,15.40
2018-11-01T18:34:48.743Z,15.40
2018-11-01T18:37:24.942Z,15.40
2018-11-01T18:40:01.322Z,15.40
2018-11-01T18:42:37.273Z,15.40
2018-11-01T18:45:14.286Z,15.40
2018-11-01T18:47:50.281Z,15.30
2018-11-01T18:50:25.975Z,15.30
2018-11-01T18:53:01.562Z,15.30
2018-11-01T18:55:37.256Z,15.30
2018-11-01T18:58:13.101Z,15.40
2018-11-01T19:00:48.673Z,15.40
2018-11-01T19:03:29.825Z,15.30
2018-11-01T19:06:05.985Z,15.30
2018-11-01T19:08:41.951Z,15.20
2018-11-01T19:11:17.732Z,15.20
2018-11-01T19:13:53.488Z,15.20
2018-11-01T19:16:28.829Z,15.10
2018-11-01T19:19:04.442Z,14.00
2018-11-01T19:21:40.395Z,15.00
2018-11-01T19:24:15.881Z,15.00
2018-11-01T19:26:51.532Z,15.00
2018-11-01T19:29:27.545Z,15.00
2018-11-01T19:32:03.401Z,14.90
2018-11-01T19:34:39.683Z,14.90
2018-11-01T19:37:15.541Z,14.90
2018-11-01T19:39:51.402Z,14.90
2018-11-01T19:42:26.738Z,14.80
2018-11-01T19:45:02.404Z,14.90
2018-11-01T19:47:38.461Z,14.90
2018-11-01T19:50:15.301Z,14.90
2018-11-01T19:52:50.848Z,14.90
2018-11-01T19:55:26.198Z,14.90
2018-11-01T19:58:01.758Z,14.90
2018-11-01T20:00:37.340Z,14.90
2018-11-01T20:03:12.945Z,14.80
2018-11-01T20:05:48.441Z,14.80
2018-11-01T20:08:25.110Z,14.80
2018-11-01T20:11:00.861Z,14.70
2018-11-01T20:13:36.575Z,14.70
2018-11-01T20:16:12.151Z,14.70
2018-11-01T20:18:48.223Z,14.70
2018-11-01T20:21:23.605Z,14.60
2018-11-01T20:23:58.906Z,14.50
2018-11-01T20:26:34.810Z,14.50
2018-11-01T20:29:10.270Z,14.50
2018-11-01T20:31:46.266Z,14.50
2018-11-01T20:34:21.650Z,14.50
2018-11-01T20:36:57.406Z,14.50
2018-11-01T20:39:33.065Z,14.50
2018-11-01T20:42:08.804Z,14.50
2018-11-01T20:44:44.366Z,14.50
2018-11-01T20:47:19.668Z,14.50
2018-11-01T20:49:55.457Z,14.50
2018-11-01T20:52:30.982Z,14.50
2018-11-01T20:55:07.230Z,14.40
2018-11-01T20:57:43.198Z,14.50
2018-11-01T21:00:19.015Z,14.40
2018-11-01T21:02:54.829Z,14.30
2018-11-01T21:05:30.328Z,14.40
2018-11-01T21:08:06.319Z,14.40
2018-11-01T21:10:41.920Z,14.30
2018-11-01T21:13:17.581Z,14.30
2018-11-01T21:15:53.166Z,14.30
2018-11-01T21:18:29.019Z,14.40
2018-11-01T21:21:04.767Z,14.30
2018-11-01T21:23:40.202Z,14.30
2018-11-01T21:26:15.742Z,14.40
2018-11-01T21:28:51.339Z,14.40
2018-11-01T21:31:27.183Z,14.40
2018-11-01T21:34:02.574Z,14.30
2018-11-01T21:36:38.312Z,14.30
2018-11-01T21:39:13.961Z,14.30
2018-11-01T21:41:49.571Z,14.30
2018-11-01T21:44:25.177Z,14.30
2018-11-01T21:47:01.051Z,14.30
2018-11-01T21:49:36.566Z,14.20
2018-11-01T21:52:12.457Z,14.20
2018-11-01T21:54:47.837Z,14.30
2018-11-01T21:57:23.835Z,14.10
2018-11-01T21:59:59.641Z,14.10
2018-11-01T22:02:35.134Z,14.10
2018-11-01T22:05:11.382Z,14.00
2018-11-01T22:07:47.619Z,14.00
2018-11-01T22:10:23.451Z,14.10
2018-11-01T22:12:58.856Z,14.10
2018-11-01T22:15:34.377Z,14.10
2018-11-01T22:18:10.864Z,14.20
2018-11-01T22:20:46.687Z,14.00
2018-11-01T22:23:22.180Z,14.00
2018-11-01T22:25:57.835Z,13.90
2018-11-01T22:28:33.561Z,13.90
2018-11-01T22:31:09.191Z,14.00
2018-11-01T22:33:45.244Z,14.00
2018-11-01T22:36:20.380Z,14.00
2018-11-01T22:38:56.225Z,13.90
2018-11-01T22:41:31.902Z,13.90
2018-11-01T22:44:07.614Z,13.90
2018-11-01T22:46:43.461Z,13.90
2018-11-01T22:49:19.023Z,14.00
2018-11-01T22:51:54.697Z,14.00
2018-11-01T22:54:30.099Z,14.10
2018-11-01T22:57:05.611Z,13.90
2018-11-01T22:59:41.382Z,13.90
2018-11-01T23:02:17.120Z,13.90
2018-11-01T23:04:52.950Z,14.00
2018-11-01T23:07:28.429Z,13.90
2018-11-01T23:10:05.526Z,13.90
2018-11-01T23:12:40.793Z,14.00
2018-11-01T23:15:16.420Z,14.00
2018-11-01T23:17:52.190Z,13.90
2018-11-01T23:20:27.621Z,14.00
2018-11-01T23:23:03.281Z,14.00
2018-11-01T23:25:39.227Z,14.00
2018-11-01T23:28:14.797Z,14.00
2018-11-01T23:30:50.506Z,14.00
2018-11-01T23:33:25.921Z,14.10
2018-11-01T23:36:03.229Z,14.00
2018-11-01T23:38:44.034Z,14.00
2018-11-01T23:41:24.622Z,13.90
2018-11-01T23:44:05.076Z,13.80
2018-11-01T23:46:45.660Z,13.80
2018-11-01T23:49:23.335Z,13.80
2018-11-01T23:51:58.984Z,13.80
2018-11-01T23:54:34.526Z,13.80
2018-11-01T23:57:10.296Z,13.80
2018-11-01T23:59:45.937Z,13.80
